Time;durP1;ratioP1;P1;durP2;ratioP2;P2;SDS_P1;SDS_P2;PMS_P1;PMS_P2;Temp;Humidity;BMP_temperature;BMP_pressure;BME280_temperature;BME280_humidity;BME280_pressure;Samples;Min_cycle;Max_cycle;Signal;HPM_P1;HPM_P2
2022/12/23 00:02:20;;;;;;;0.43;0.30;;;13.00;99.90;;;;;;5031407;28;20403;-73
2022/12/23 00:04:45;;;;;;;0.70;0.40;;;13.00;99.90;;;;;;5031688;28;20387;-73
2022/12/23 00:07:11;;;;;;;0.50;0.33;;;13.00;99.90;;;;;;5032508;28;20889;-73
2022/12/23 00:09:36;;;;;;;1.00;0.40;;;13.00;99.90;;;;;;5032529;28;20390;-72
2022/12/23 00:15:04;;;;;;;1.00;0.40;;;13.00;99.90;;;;;;5031711;28;20382;-73
2022/12/23 00:17:33;;;;;;;0.57;0.40;;;13.10;99.90;;;;;;5032459;28;20394;-72
2022/12/23 00:19:59;;;;;;;0.90;0.40;;;13.20;99.90;;;;;;5032279;28;20457;-73
2022/12/23 00:25:09;;;;;;;0.75;0.40;;;13.20;99.90;;;;;;5032050;28;20402;-73
2022/12/23 00:27:35;;;;;;;0.50;0.30;;;13.20;99.90;;;;;;5032430;28;20757;-72
2022/12/23 00:30:00;;;;;;;0.60;0.50;;;13.20;99.90;;;;;;5032061;28;20386;-73
2022/12/23 00:32:26;;;;;;;0.98;0.40;;;13.20;99.90;;;;;;5031928;28;20465;-73
2022/12/23 00:34:51;;;;;;;0.50;0.30;;;13.30;99.90;;;;;;5030309;28;20956;-73
2022/12/23 00:37:17;;;;;;;0.90;0.40;;;13.30;99.90;;;;;;5032289;28;20397;-72
2022/12/23 00:45:15;;;;;;;0.82;0.40;;;13.30;99.90;;;;;;5032166;28;20498;-74
2022/12/23 00:50:26;;;;;;;0.85;0.40;;;13.40;99.90;;;;;;5032001;28;20436;-74
2022/12/23 00:52:52;;;;;;;0.50;0.40;;;13.30;99.90;;;;;;5031030;28;20506;-73
2022/12/23 00:55:17;;;;;;;1.65;0.30;;;13.30;99.90;;;;;;5031580;28;20380;-73
2022/12/23 00:57:43;;;;;;;0.50;0.30;;;13.30;99.90;;;;;;5031738;28;20397;-73
2022/12/23 01:00:09;;;;;;;0.70;0.50;;;13.40;99.90;;;;;;5031580;28;20470;-76
2022/12/23 01:05:37;;;;;;;0.43;0.30;;;13.40;99.90;;;;;;5031316;28;20425;-75
2022/12/23 01:08:09;;;;;;;0.50;0.40;;;13.50;99.90;;;;;;5031571;28;20786;-72
2022/12/23 01:10:38;;;;;;;0.68;0.30;;;13.40;99.90;;;;;;5011656;28;20408;-74
2022/12/23 01:13:05;;;;;;;0.90;0.32;;;13.40;99.90;;;;;;5010893;28;20444;-75
2022/12/23 01:15:31;;;;;;;0.60;0.40;;;13.60;99.90;;;;;;5011783;28;20883;-74
2022/12/23 01:17:57;;;;;;;0.52;0.38;;;13.60;99.90;;;;;;5012051;28;20400;-74
2022/12/23 01:20:23;;;;;;;0.60;0.30;;;13.60;99.90;;;;;;5011929;28;20409;-74
2022/12/23 01:22:49;;;;;;;2.13;0.50;;;13.60;99.90;;;;;;5010713;28;20779;-74
2022/12/23 01:25:15;;;;;;;0.50;0.30;;;13.60;99.90;;;;;;5012925;28;20400;-74
2022/12/23 01:27:40;;;;;;;0.50;0.30;;;13.60;99.90;;;;;;5031263;28;20853;-74
2022/12/23 01:30:07;;;;;;;0.50;0.40;;;13.60;99.90;;;;;;5031026;28;20390;-74
2022/12/23 01:32:32;;;;;;;0.60;0.40;;;13.60;99.90;;;;;;5030253;28;20470;-73
2022/12/23 01:34:58;;;;;;;0.80;0.30;;;13.50;99.90;;;;;;5030781;28;20482;-75
2022/12/23 01:37:23;;;;;;;0.50;0.30;;;13.60;99.90;;;;;;5031013;28;20833;-74
2022/12/23 01:39:49;;;;;;;0.40;0.30;;;13.60;99.90;;;;;;5030929;28;20389;-73
2022/12/23 01:45:01;;;;;;;0.80;0.47;;;13.60;99.90;;;;;;5030791;28;20401;-72
2022/12/23 01:47:35;;;;;;;2.00;0.40;;;13.60;99.90;;;;;;5030823;28;20880;-73
2022/12/23 01:50:08;;;;;;;0.40;0.30;;;13.60;99.90;;;;;;5030895;28;20382;-73
2022/12/23 01:52:42;;;;;;;0.80;0.50;;;13.50;99.90;;;;;;5030077;28;20387;-73
2022/12/23 01:55:08;;;;;;;0.50;0.40;;;13.60;99.90;;;;;;5029431;28;20391;-73
2022/12/23 01:57:37;;;;;;;0.95;0.40;;;13.60;99.90;;;;;;5030390;28;20394;-73
2022/12/23 02:05:35;;;;;;;0.80;0.30;;;13.70;99.90;;;;;;5030550;28;20386;-72
2022/12/23 02:11:10;;;;;;;0.50;0.40;;;13.70;99.90;;;;;;5011010;28;20442;-73
2022/12/23 02:16:45;;;;;;;0.50;0.30;;;13.70;99.90;;;;;;5010812;28;20731;-73
2022/12/23 02:19:21;;;;;;;0.70;0.50;;;13.70;99.90;;;;;;5010707;28;20404;-73
2022/12/23 02:22:21;;;;;;;1.00;0.30;;;13.80;99.90;;;;;;5010658;28;20385;-72
2022/12/23 02:25:26;;;;;;;0.70;0.40;;;13.80;99.90;;;;;;5010079;28;20396;-73
2022/12/23 02:28:04;;;;;;;0.60;0.30;;;13.80;99.90;;;;;;5010616;28;20397;-73
2022/12/23 02:30:44;;;;;;;0.40;0.30;;;13.90;99.90;;;;;;5010720;28;20377;-73
2022/12/23 02:33:14;;;;;;;0.70;0.40;;;13.90;99.90;;;;;;5009754;28;20391;-72
2022/12/23 02:36:12;;;;;;;1.23;0.60;;;13.90;99.90;;;;;;5010414;28;20389;-73
2022/12/23 02:39:04;;;;;;;0.40;0.30;;;13.90;99.90;;;;;;5010637;28;20451;-73
2022/12/23 02:41:55;;;;;;;0.40;0.30;;;13.90;99.90;;;;;;5010469;28;20805;-73
2022/12/23 02:44:43;;;;;;;0.57;0.30;;;13.90;99.90;;;;;;5009368;28;20412;-73
2022/12/23 02:47:23;;;;;;;0.57;0.40;;;14.00;99.90;;;;;;5010756;28;20381;-73
2022/12/23 02:49:53;;;;;;;0.60;0.30;;;13.90;99.90;;;;;;5010721;28;20380;-73
2022/12/23 02:52:22;;;;;;;0.40;0.20;;;13.90;99.90;;;;;;5011010;28;20856;-73
2022/12/23 02:54:53;;;;;;;2.30;0.30;;;13.90;99.90;;;;;;5008826;28;20439;-73
2022/12/23 02:57:24;;;;;;;0.40;0.30;;;13.90;99.90;;;;;;5010417;28;20470;-73
2022/12/23 02:59:51;;;;;;;0.50;0.30;;;13.90;99.90;;;;;;5010484;28;20385;-73
2022/12/23 03:02:18;;;;;;;0.45;0.30;;;13.90;99.90;;;;;;5010227;28;20443;-73
2022/12/23 03:04:43;;;;;;;0.60;0.30;;;13.90;99.90;;;;;;5009666;28;20396;-73
2022/12/23 03:07:27;;;;;;;0.50;0.30;;;13.90;99.90;;;;;;5010226;28;20759;-73
2022/12/23 03:10:18;;;;;;;0.63;0.30;;;14.00;99.90;;;;;;5025201;28;20506;-73
2022/12/23 03:13:08;;;;;;;0.85;0.30;;;14.00;99.90;;;;;;5029312;28;20383;-73
2022/12/23 03:16:03;;;;;;;0.40;0.30;;;14.00;99.90;;;;;;5029814;28;20391;-73
2022/12/23 03:18:47;;;;;;;0.40;0.20;;;14.00;99.90;;;;;;5030083;28;20387;-73
2022/12/23 03:21:23;;;;;;;0.40;0.20;;;14.00;99.90;;;;;;5029843;28;20387;-73
2022/12/23 03:23:54;;;;;;;0.82;0.40;;;14.00;99.90;;;;;;5029244;28;20417;-73
2022/12/23 03:26:37;;;;;;;0.60;0.30;;;14.00;99.90;;;;;;5033429;28;20403;-73
2022/12/23 03:29:12;;;;;;;0.50;0.30;;;13.90;99.90;;;;;;5033500;28;20742;-73
2022/12/23 03:31:40;;;;;;;0.70;0.30;;;14.00;99.90;;;;;;5033326;28;20367;-73
2022/12/23 03:34:11;;;;;;;0.55;0.25;;;14.00;99.90;;;;;;5031318;28;20522;-73
2022/12/23 03:36:44;;;;;;;0.40;0.20;;;13.90;99.90;;;;;;5033217;28;20395;-73
2022/12/23 03:39:15;;;;;;;0.40;0.30;;;13.90;99.90;;;;;;5033341;28;20391;-72
2022/12/23 03:41:46;;;;;;;0.60;0.30;;;14.00;99.90;;;;;;5033079;28;20395;-73
2022/12/23 03:44:20;;;;;;;0.80;0.30;;;14.00;99.90;;;;;;5032294;28;20414;-73
2022/12/23 03:46:54;;;;;;;0.50;0.40;;;14.00;99.90;;;;;;5032996;28;20382;-73
2022/12/23 03:49:28;;;;;;;0.50;0.30;;;14.00;99.90;;;;;;5033007;28;20463;-73
2022/12/23 03:52:06;;;;;;;0.50;0.30;;;13.90;99.90;;;;;;5033020;28;20382;-73
2022/12/23 03:54:42;;;;;;;0.40;0.30;;;13.90;99.90;;;;;;5032283;28;20812;-74
2022/12/23 03:57:09;;;;;;;0.40;0.30;;;13.90;99.90;;;;;;5031544;28;20754;-73
2022/12/23 03:59:39;;;;;;;0.40;0.30;;;13.90;99.90;;;;;;5032875;28;20391;-74
2022/12/23 04:02:29;;;;;;;0.50;0.40;;;13.90;99.90;;;;;;5032908;28;20390;-74
2022/12/23 04:05:08;;;;;;;0.40;0.30;;;13.90;99.90;;;;;;5033021;28;20379;-73
2022/12/23 04:07:50;;;;;;;0.60;0.30;;;13.90;99.90;;;;;;5032765;28;20387;-73
2022/12/23 04:10:16;;;;;;;0.50;0.30;;;13.90;99.90;;;;;;5032873;28;20398;-74
2022/12/23 04:12:42;;;;;;;0.50;0.30;;;13.90;99.90;;;;;;5030768;28;20841;-73
2022/12/23 04:15:09;;;;;;;0.40;0.30;;;13.90;99.90;;;;;;5032521;28;20815;-72
2022/12/23 04:17:34;;;;;;;0.60;0.40;;;13.90;99.90;;;;;;5031415;28;20383;-73
2022/12/23 04:20:00;;;;;;;0.90;0.40;;;13.90;99.90;;;;;;5032634;28;20391;-73
2022/12/23 04:22:25;;;;;;;0.40;0.33;;;13.90;99.90;;;;;;5031946;28;21098;-73
2022/12/23 04:24:51;;;;;;;1.80;0.40;;;13.90;99.90;;;;;;5031508;28;20418;-73
2022/12/23 04:27:16;;;;;;;0.50;0.25;;;13.90;99.90;;;;;;5030947;28;20381;-72
2022/12/23 04:29:43;;;;;;;0.40;0.30;;;13.90;99.90;;;;;;5032228;28;20452;-73
2022/12/23 04:32:09;;;;;;;0.50;0.40;;;13.90;99.90;;;;;;5032178;28;20858;-72
2022/12/23 04:34:35;;;;;;;1.08;0.47;;;13.90;99.90;;;;;;5031599;28;20793;-72
2022/12/23 04:37:00;;;;;;;0.60;0.40;;;13.80;99.90;;;;;;5031293;28;20429;-73
2022/12/23 04:39:26;;;;;;;1.20;0.70;;;13.90;99.90;;;;;;5032260;28;20390;-72
2022/12/23 04:41:51;;;;;;;0.90;0.40;;;13.90;99.90;;;;;;5032231;28;20383;-73
2022/12/23 04:44:17;;;;;;;0.60;0.40;;;13.90;99.90;;;;;;5031104;28;20407;-73
2022/12/23 04:46:44;;;;;;;0.70;0.50;;;13.90;99.90;;;;;;5030841;28;20462;-74
2022/12/23 04:49:09;;;;;;;1.20;0.50;;;14.00;99.90;;;;;;5032014;28;20411;-73
2022/12/23 04:51:35;;;;;;;0.70;0.37;;;13.90;99.90;;;;;;5032003;28;20418;-73
2022/12/23 04:54:00;;;;;;;0.70;0.40;;;14.00;99.90;;;;;;5031161;28;20457;-74
2022/12/23 04:56:26;;;;;;;0.60;0.40;;;13.90;99.90;;;;;;5031869;28;20387;-74
2022/12/23 04:58:51;;;;;;;0.60;0.60;;;13.90;99.90;;;;;;5031619;28;20841;-73
2022/12/23 05:01:17;;;;;;;0.60;0.40;;;13.90;99.90;;;;;;5031904;28;20731;-74
2022/12/23 05:03:42;;;;;;;0.50;0.30;;;13.90;99.90;;;;;;5030875;28;20497;-74
2022/12/23 05:06:08;;;;;;;0.80;0.40;;;13.90;99.90;;;;;;5031614;28;20379;-74
2022/12/23 05:08:34;;;;;;;0.40;0.30;;;13.90;99.90;;;;;;5031505;28;20398;-73
2022/12/23 05:10:59;;;;;;;0.50;0.30;;;13.80;99.90;;;;;;5031731;28;20390;-74
2022/12/23 05:13:25;;;;;;;0.80;0.30;;;13.90;99.90;;;;;;5030953;28;20415;-74
2022/12/23 05:15:52;;;;;;;0.77;0.40;;;13.90;99.90;;;;;;5030288;28;20903;-73
2022/12/23 05:18:19;;;;;;;1.20;0.38;;;13.90;99.90;;;;;;5030129;28;20870;-74
2022/12/23 05:20:44;;;;;;;0.60;0.40;;;13.90;99.90;;;;;;5031501;28;20762;-74
2022/12/23 05:23:10;;;;;;;0.70;0.30;;;13.90;99.90;;;;;;5030613;28;20407;-73
2022/12/23 05:25:38;;;;;;;0.82;0.30;;;13.90;99.90;;;;;;5031235;28;20457;-74
2022/12/23 05:28:04;;;;;;;0.90;0.40;;;13.90;99.90;;;;;;5027502;28;20425;-75
2022/12/23 05:30:30;;;;;;;0.50;0.30;;;14.00;99.90;;;;;;5026765;28;20387;-74
2022/12/23 05:32:56;;;;;;;0.50;0.40;;;13.90;99.90;;;;;;5030682;28;20391;-73
2022/12/23 05:35:25;;;;;;;0.40;0.40;;;13.90;99.90;;;;;;5031097;28;20434;-74
2022/12/23 05:37:51;;;;;;;0.57;0.40;;;13.90;99.90;;;;;;5030637;28;20387;-73
2022/12/23 05:40:17;;;;;;;1.00;0.40;;;13.90;99.90;;;;;;5029171;28;20818;-74
2022/12/23 05:42:42;;;;;;;0.60;0.30;;;13.90;99.90;;;;;;5030041;28;21013;-72
2022/12/23 05:45:08;;;;;;;0.60;0.30;;;13.90;99.90;;;;;;5022395;28;20397;-74
2022/12/23 05:47:34;;;;;;;0.60;0.40;;;13.90;99.90;;;;;;5021932;28;20433;-74
2022/12/23 05:50:00;;;;;;;4.50;0.80;;;13.80;99.90;;;;;;5030959;28;20387;-74
2022/12/23 05:52:25;;;;;;;0.50;0.35;;;13.80;99.90;;;;;;5030580;28;20415;-74
2022/12/23 05:54:51;;;;;;;0.60;0.40;;;13.90;99.90;;;;;;5030356;28;20896;-73
2022/12/23 05:57:16;;;;;;;0.40;0.40;;;13.80;99.90;;;;;;5030817;28;20398;-74
2022/12/23 05:59:42;;;;;;;1.10;0.30;;;13.90;99.90;;;;;;5030827;28;20427;-73
2022/12/23 06:02:07;;;;;;;0.60;0.40;;;13.90;99.90;;;;;;5030718;28;20920;-74
2022/12/23 06:04:33;;;;;;;0.65;0.40;;;13.90;99.90;;;;;;5029903;28;20390;-74
2022/12/23 06:06:59;;;;;;;0.60;0.40;;;13.90;99.90;;;;;;5030735;28;20391;-73
2022/12/23 06:09:24;;;;;;;0.80;0.43;;;13.90;99.90;;;;;;5029287;28;20855;-74
2022/12/23 06:11:50;;;;;;;1.20;0.40;;;13.90;99.90;;;;;;5030587;28;20387;-74
2022/12/23 06:14:15;;;;;;;0.50;0.30;;;13.90;99.90;;;;;;5029736;28;20395;-73
2022/12/23 06:16:41;;;;;;;0.60;0.40;;;13.80;99.90;;;;;;5030561;28;20397;-74
2022/12/23 06:19:06;;;;;;;0.50;0.40;;;13.80;99.90;;;;;;5030477;28;20444;-74
2022/12/23 06:21:32;;;;;;;0.40;0.30;;;13.90;99.90;;;;;;5030515;28;20843;-73
2022/12/23 06:23:57;;;;;;;0.70;0.50;;;13.90;99.90;;;;;;5029481;28;20808;-73
2022/12/23 06:26:23;;;;;;;0.90;0.40;;;13.80;99.90;;;;;;5030162;28;20403;-74
2022/12/23 06:28:48;;;;;;;0.50;0.43;;;13.80;99.90;;;;;;5030390;28;20387;-73
2022/12/23 06:31:14;;;;;;;0.50;0.40;;;13.90;99.90;;;;;;5029215;28;20445;-73
2022/12/23 06:33:40;;;;;;;0.55;0.40;;;14.00;99.90;;;;;;5029514;28;20888;-73
2022/12/23 06:36:06;;;;;;;0.45;0.35;;;14.00;99.90;;;;;;5030329;28;20401;-73
2022/12/23 06:38:32;;;;;;;0.93;0.50;;;14.10;99.90;;;;;;5030275;28;20386;-74
2022/12/23 06:40:57;;;;;;;0.67;0.40;;;14.00;99.90;;;;;;5030429;28;20387;-74
2022/12/23 06:43:23;;;;;;;0.40;0.30;;;14.10;99.90;;;;;;5029773;28;20410;-74
2022/12/23 06:45:49;;;;;;;0.98;0.40;;;14.00;99.90;;;;;;5030246;28;20379;-74
2022/12/23 06:48:15;;;;;;;0.70;0.40;;;14.00;99.90;;;;;;5029048;28;20420;-74
2022/12/23 06:50:41;;;;;;;0.93;0.40;;;14.00;99.90;;;;;;5030220;28;20383;-74
2022/12/23 06:53:06;;;;;;;0.80;0.50;;;14.00;99.90;;;;;;5029552;28;20521;-73
2022/12/23 06:55:32;;;;;;;1.30;0.40;;;13.90;99.90;;;;;;5030047;28;20387;-75
2022/12/23 06:57:57;;;;;;;0.80;0.30;;;14.00;99.90;;;;;;5030191;28;20379;-74
2022/12/23 07:00:23;;;;;;;0.60;0.40;;;14.00;99.90;;;;;;5032659;28;20391;-74
2022/12/23 07:02:48;;;;;;;1.23;0.32;;;14.10;99.90;;;;;;5033228;28;20916;-74
2022/12/23 07:05:14;;;;;;;0.63;0.30;;;14.10;99.90;;;;;;5034025;28;20386;-74
2022/12/23 07:07:39;;;;;;;0.80;0.50;;;14.10;99.90;;;;;;5033984;28;20834;-74
2022/12/23 07:10:07;;;;;;;0.80;0.40;;;14.00;99.90;;;;;;5033613;28;20398;-74
2022/12/23 07:12:32;;;;;;;0.50;0.40;;;14.00;99.90;;;;;;5033157;28;20391;-73
2022/12/23 07:14:58;;;;;;;0.50;0.40;;;14.10;99.90;;;;;;5033117;28;20397;-74
2022/12/23 07:17:24;;;;;;;1.10;0.40;;;14.10;99.90;;;;;;5033810;28;20379;-73
2022/12/23 07:19:50;;;;;;;0.85;0.40;;;14.20;99.90;;;;;;5023064;28;20481;-73
2022/12/23 07:22:15;;;;;;;0.90;0.50;;;14.20;99.90;;;;;;5024912;28;20401;-73
2022/12/23 07:24:41;;;;;;;1.00;0.70;;;14.10;99.90;;;;;;5026334;28;20390;-71
2022/12/23 07:27:06;;;;;;;0.90;0.50;;;14.20;99.90;;;;;;5033788;28;20422;-72
2022/12/23 07:29:32;;;;;;;0.80;0.50;;;14.20;99.90;;;;;;5027106;28;20444;-72
2022/12/23 07:31:57;;;;;;;1.20;0.60;;;14.20;99.90;;;;;;5033268;28;20379;-72
2022/12/23 07:34:23;;;;;;;0.50;0.40;;;14.10;99.90;;;;;;5029348;28;20444;-73
2022/12/23 07:36:48;;;;;;;0.55;0.40;;;14.10;99.90;;;;;;5033259;28;20481;-73
2022/12/23 07:39:14;;;;;;;0.60;0.40;;;14.10;99.90;;;;;;5030983;28;20488;-72
2022/12/23 07:41:39;;;;;;;1.00;0.50;;;14.10;99.90;;;;;;5033467;28;20739;-72
2022/12/23 07:44:06;;;;;;;0.70;0.40;;;14.10;99.90;;;;;;5016704;28;20409;-73
2022/12/23 07:46:34;;;;;;;0.60;0.40;;;14.10;99.90;;;;;;5029652;28;20391;-73
2022/12/23 07:49:00;;;;;;;0.63;0.40;;;14.20;99.90;;;;;;5032979;28;20391;-73
2022/12/23 07:51:28;;;;;;;0.60;0.30;;;14.20;99.90;;;;;;5032690;28;20383;-74
2022/12/23 07:53:53;;;;;;;0.88;0.30;;;14.10;99.90;;;;;;5028193;28;20399;-73
2022/12/23 07:56:20;;;;;;;0.50;0.30;;;14.00;99.90;;;;;;5028399;28;20422;-73
2022/12/23 07:58:50;;;;;;;0.50;0.40;;;13.90;99.90;;;;;;5024486;28;20753;-72
2022/12/23 08:01:17;;;;;;;0.57;0.30;;;13.80;99.90;;;;;;5027530;28;20420;-74
2022/12/23 08:03:43;;;;;;;0.80;0.40;;;13.70;99.90;;;;;;5030928;28;20916;-72
2022/12/23 08:06:14;;;;;;;0.60;0.40;;;13.60;99.90;;;;;;5027869;28;20403;-73
2022/12/23 08:08:41;;;;;;;0.40;0.30;;;13.60;99.90;;;;;;5032798;28;20398;-73
2022/12/23 08:11:09;;;;;;;0.40;0.30;;;13.60;99.90;;;;;;5031372;28;20391;-74
2022/12/23 08:13:36;;;;;;;0.60;0.40;;;13.50;99.90;;;;;;5030535;28;20442;-73
2022/12/23 08:16:03;;;;;;;0.40;0.30;;;13.50;99.90;;;;;;5032400;28;20403;-74
2022/12/23 08:18:31;;;;;;;0.70;0.40;;;13.40;99.90;;;;;;5025955;28;20414;-74
2022/12/23 08:21:05;;;;;;;0.50;0.30;;;13.30;99.90;;;;;;5022046;28;20395;-74
2022/12/23 08:23:32;;;;;;;0.60;0.30;;;13.20;99.90;;;;;;5028070;28;20414;-72
2022/12/23 08:26:03;;;;;;;0.40;0.30;;;13.20;99.90;;;;;;5031442;28;20912;-72
2022/12/23 08:28:29;;;;;;;0.60;0.40;;;13.10;99.90;;;;;;5032411;28;20384;-71
2022/12/23 08:31:01;;;;;;;0.60;0.30;;;13.10;99.90;;;;;;5030980;28;20441;-74
2022/12/23 08:33:27;;;;;;;0.40;0.30;;;13.10;99.90;;;;;;5031632;28;20399;-74
2022/12/23 08:35:53;;;;;;;0.50;0.30;;;13.10;99.90;;;;;;5032192;28;20383;-73
2022/12/23 08:38:19;;;;;;;0.60;0.40;;;13.10;99.90;;;;;;5032307;28;20422;-73
2022/12/23 08:40:45;;;;;;;1.60;0.70;;;13.20;99.90;;;;;;5032142;28;20453;-73
2022/12/23 08:43:10;;;;;;;0.73;0.53;;;13.20;99.90;;;;;;5031444;28;20418;-73
2022/12/23 08:45:37;;;;;;;0.60;0.40;;;13.10;99.90;;;;;;5030671;28;20436;-72
2022/12/23 08:48:04;;;;;;;1.90;0.60;;;13.20;99.90;;;;;;5032039;28;20391;-72
2022/12/23 08:50:29;;;;;;;1.30;0.50;;;13.30;99.90;;;;;;5031995;28;20383;-72
2022/12/23 08:52:55;;;;;;;0.50;0.47;;;13.20;99.90;;;;;;5031305;28;20482;-72
2022/12/23 08:55:20;;;;;;;0.50;0.40;;;13.20;99.90;;;;;;5031897;28;20395;-73
2022/12/23 08:57:46;;;;;;;0.90;0.40;;;13.30;99.90;;;;;;5031758;28;20398;-73
2022/12/23 09:00:12;;;;;;;0.40;0.30;;;13.30;99.90;;;;;;5031726;28;20873;-71
2022/12/23 09:02:37;;;;;;;0.50;0.30;;;13.40;99.90;;;;;;5030973;28;20407;-73
2022/12/23 09:05:03;;;;;;;0.63;0.50;;;13.40;99.90;;;;;;5031853;28;20375;-73
2022/12/23 09:07:28;;;;;;;0.60;0.50;;;13.50;99.90;;;;;;5031767;28;20390;-73
2022/12/23 09:09:54;;;;;;;0.50;0.40;;;13.60;99.90;;;;;;5031740;28;20445;-72
2022/12/23 09:12:19;;;;;;;0.70;0.40;;;13.60;99.90;;;;;;5031433;28;20383;-73
2022/12/23 09:14:46;;;;;;;1.20;0.60;;;13.60;99.90;;;;;;5029561;28;20394;-73
2022/12/23 09:17:12;;;;;;;0.50;0.40;;;13.70;99.90;;;;;;5031365;28;20409;-73
2022/12/23 09:19:38;;;;;;;1.40;0.40;;;13.70;99.90;;;;;;5030013;28;20407;-74
2022/12/23 09:22:03;;;;;;;0.75;0.50;;;13.70;99.90;;;;;;5030838;28;20463;-73
2022/12/23 09:24:29;;;;;;;1.23;0.40;;;13.70;99.90;;;;;;5030117;28;20403;-71
2022/12/23 09:26:54;;;;;;;0.50;0.40;;;13.80;99.90;;;;;;5031038;28;20399;-73
2022/12/23 09:29:20;;;;;;;0.80;0.40;;;13.70;99.90;;;;;;5031339;28;20394;-74
2022/12/23 09:31:45;;;;;;;0.70;0.35;;;13.80;99.90;;;;;;5031190;28;20406;-73
2022/12/23 09:34:11;;;;;;;0.60;0.50;;;13.80;99.90;;;;;;5029089;28;20379;-72
2022/12/23 09:36:36;;;;;;;1.30;0.40;;;13.80;99.90;;;;;;5029632;28;20966;-73
2022/12/23 09:39:02;;;;;;;1.20;0.80;;;13.80;99.90;;;;;;5029920;28;20388;-74
2022/12/23 09:41:43;;;;;;;0.50;0.30;;;13.70;99.90;;;;;;5031039;28;20383;-73
2022/12/23 09:44:30;;;;;;;0.65;0.40;;;13.60;99.90;;;;;;5030077;28;20410;-74
2022/12/23 09:47:00;;;;;;;0.70;0.40;;;13.50;99.90;;;;;;5029597;28;20430;-73
2022/12/23 09:49:26;;;;;;;0.50;0.40;;;13.40;99.90;;;;;;5031085;28;20387;-73
2022/12/23 09:51:59;;;;;;;0.70;0.40;;;13.50;99.90;;;;;;5030868;28;20478;-74
2022/12/23 09:54:30;;;;;;;0.60;0.40;;;13.40;99.90;;;;;;5030295;28;20440;-73
2022/12/23 09:57:16;;;;;;;1.08;0.55;;;13.40;99.90;;;;;;5030897;28;20386;-73
2022/12/23 10:00:09;;;;;;;0.60;0.40;;;13.40;99.90;;;;;;5030810;28;20504;-74
2022/12/23 10:02:49;;;;;;;1.00;0.50;;;13.40;99.90;;;;;;5029945;28;20438;-73
2022/12/23 10:05:42;;;;;;;0.60;0.50;;;13.40;99.90;;;;;;5030574;28;20390;-73
2022/12/23 10:08:43;;;;;;;0.60;0.40;;;13.40;99.90;;;;;;5029309;28;20816;-74
2022/12/23 10:11:24;;;;;;;0.70;0.60;;;13.30;99.90;;;;;;5030386;28;20897;-74
2022/12/23 10:14:16;;;;;;;0.80;0.50;;;13.40;99.90;;;;;;5029866;28;20398;-74
2022/12/23 10:16:45;;;;;;;0.90;0.60;;;13.40;99.90;;;;;;5030321;28;20477;-73
2022/12/23 10:19:40;;;;;;;0.80;0.60;;;13.40;99.90;;;;;;5030580;28;20418;-73
2022/12/23 10:22:15;;;;;;;0.70;0.60;;;13.30;99.90;;;;;;5030444;28;20769;-73
2022/12/23 10:24:45;;;;;;;1.20;0.60;;;13.40;99.90;;;;;;5029651;28;20391;-74
2022/12/23 10:27:23;;;;;;;1.00;0.70;;;13.40;99.90;;;;;;5030638;28;20399;-73
2022/12/23 10:29:48;;;;;;;1.10;0.60;;;13.40;99.90;;;;;;5030496;28;20440;-73
2022/12/23 10:32:37;;;;;;;0.70;0.60;;;13.50;99.90;;;;;;5030285;28;20398;-73
2022/12/23 10:35:38;;;;;;;1.60;0.60;;;13.50;99.90;;;;;;5032426;28;20848;-73
2022/12/23 10:38:19;;;;;;;1.30;0.60;;;13.50;99.90;;;;;;5034435;28;20418;-72
2022/12/23 10:41:17;;;;;;;1.58;0.57;;;13.40;99.90;;;;;;5034564;28;20391;-73
2022/12/23 10:44:13;;;;;;;0.80;0.50;;;13.40;99.90;;;;;;5032255;28;20773;-73
2022/12/23 10:46:55;;;;;;;0.60;0.40;;;13.50;99.90;;;;;;5028982;28;20404;-73
2022/12/23 10:49:42;;;;;;;2.20;0.50;;;13.50;99.90;;;;;;5033235;28;20779;-73
2022/12/23 10:52:16;;;;;;;1.10;0.57;;;13.50;99.90;;;;;;5032711;28;20398;-73
2022/12/23 10:54:43;;;;;;;1.55;0.80;;;13.40;99.90;;;;;;5033401;28;20512;-73
2022/12/23 10:57:10;;;;;;;0.70;0.43;;;13.30;99.90;;;;;;5033974;28;20393;-73
2022/12/23 10:59:36;;;;;;;0.90;0.50;;;13.30;99.90;;;;;;5034041;28;20444;-73
2022/12/23 11:02:11;;;;;;;0.60;0.40;;;13.20;99.90;;;;;;5032671;28;20399;-73
2022/12/23 11:04:41;;;;;;;0.57;0.30;;;13.20;99.90;;;;;;5033145;28;20482;-73
2022/12/23 11:07:11;;;;;;;0.40;0.30;;;13.20;99.90;;;;;;5033859;28;20390;-72
2022/12/23 11:09:46;;;;;;;0.47;0.38;;;13.20;99.90;;;;;;5033813;28;20390;-72
2022/12/23 11:12:13;;;;;;;0.80;0.40;;;13.20;99.90;;;;;;5033626;28;20395;-73
2022/12/23 11:17:28;;;;;;;0.70;0.40;;;13.20;99.90;;;;;;5035137;22;20429;-73
2022/12/23 11:20:14;;;;;;;1.20;0.60;;;13.20;99.90;;;;;;5012661;28;20396;-73
2022/12/23 11:22:54;;;;;;;0.60;0.47;;;13.30;99.90;;;;;;5011654;28;20420;-72
2022/12/23 11:25:41;;;;;;;0.60;0.50;;;13.30;99.90;;;;;;4995112;28;20455;-72
2022/12/23 11:28:09;;;;;;;0.57;0.50;;;13.40;99.90;;;;;;5012524;28;20436;-73
2022/12/23 11:30:51;;;;;;;0.60;0.50;;;13.60;99.90;;;;;;5012416;28;20476;-74
2022/12/23 11:33:23;;;;;;;0.80;0.43;;;13.70;99.90;;;;;;5011748;28;20427;-74
2022/12/23 11:36:06;;;;;;;1.30;0.50;;;13.70;99.90;;;;;;5012282;28;20434;-73
2022/12/23 11:38:34;;;;;;;0.50;0.40;;;13.70;99.90;;;;;;5011428;28;20404;-74
2022/12/23 11:41:00;;;;;;;0.50;0.40;;;13.70;99.90;;;;;;5012216;28;20391;-73
2022/12/23 11:43:26;;;;;;;0.98;0.40;;;13.70;99.90;;;;;;5011459;28;20922;-74
2022/12/23 11:46:15;;;;;;;1.23;0.52;;;13.70;99.90;;;;;;5011918;28;20385;-72
2022/12/23 11:48:40;;;;;;;0.73;0.50;;;13.70;99.90;;;;;;4994534;28;20755;-73
2022/12/23 11:51:06;;;;;;;0.70;0.50;;;13.70;99.90;;;;;;5012147;28;20384;-74
2022/12/23 11:53:31;;;;;;;2.00;0.63;;;13.70;99.90;;;;;;5011465;28;20391;-74
2022/12/23 11:56:12;;;;;;;0.88;0.50;;;13.70;99.90;;;;;;5012113;28;20389;-73
2022/12/23 11:58:52;;;;;;;0.60;0.40;;;13.80;99.90;;;;;;4994448;28;20404;-73
2022/12/23 12:01:20;;;;;;;0.90;0.50;;;13.80;99.90;;;;;;4994507;28;20405;-74
2022/12/23 12:03:58;;;;;;;0.75;0.50;;;13.90;99.90;;;;;;5011033;28;20882;-74
2022/12/23 12:06:25;;;;;;;1.00;0.50;;;13.90;99.90;;;;;;5011159;28;20448;-73
2022/12/23 12:08:52;;;;;;;0.65;0.50;;;14.00;99.90;;;;;;4993116;28;20400;-73
2022/12/23 12:11:24;;;;;;;0.88;0.50;;;14.00;99.90;;;;;;4994011;28;20395;-73
2022/12/23 12:13:57;;;;;;;0.60;0.30;;;14.10;99.90;;;;;;4991513;28;20391;-74
2022/12/23 12:16:29;;;;;;;0.60;0.40;;;14.10;99.90;;;;;;4947426;28;1752119;-74
2022/12/23 12:19:00;;;;;;;0.65;0.50;;;14.20;99.90;;;;;;4987121;28;20480;-74
2022/12/23 12:21:32;;;;;;;0.60;0.50;;;14.10;99.90;;;;;;4995227;28;20393;-74
2022/12/23 12:24:15;;;;;;;0.70;0.50;;;14.10;99.90;;;;;;5011802;28;20874;-74
2022/12/23 12:26:45;;;;;;;0.73;0.32;;;14.10;99.90;;;;;;4998791;28;20781;-74
2022/12/23 12:29:19;;;;;;;0.80;0.50;;;14.20;99.90;;;;;;4975545;28;20401;-72
2022/12/23 12:31:49;;;;;;;1.30;0.40;;;14.20;99.90;;;;;;4993509;28;20387;-71
2022/12/23 12:34:36;;;;;;;0.60;0.40;;;14.10;99.90;;;;;;4992068;28;20398;-72
2022/12/23 12:37:57;;;;;;;0.50;0.40;;;14.10;99.90;;;;;;4992921;28;20382;-72
2022/12/23 12:40:35;;;;;;;0.88;0.60;;;14.00;99.90;;;;;;4903785;29;20404;-72
2022/12/23 12:43:31;;;;;;;0.60;0.40;;;14.10;99.90;;;;;;4981465;28;20414;-72
2022/12/23 12:46:21;;;;;;;1.20;0.50;;;14.10;99.90;;;;;;4975240;28;20469;-73
2022/12/23 12:49:45;;;;;;;0.90;0.50;;;14.00;99.90;;;;;;4992480;28;20393;-73
2022/12/23 12:52:24;;;;;;;1.38;0.60;;;14.00;99.90;;;;;;4959520;28;20529;-73
2022/12/23 12:55:31;;;;;;;0.70;0.60;;;14.00;99.90;;;;;;4991998;28;20410;-72
2022/12/23 12:57:59;;;;;;;2.22;0.65;;;14.00;99.90;;;;;;4988499;28;20433;-72
2022/12/23 13:00:25;;;;;;;0.90;0.60;;;14.00;99.90;;;;;;4992388;28;20474;-73
2022/12/23 13:03:03;;;;;;;1.23;0.80;;;13.90;99.90;;;;;;4991481;28;20501;-72
2022/12/23 13:05:58;;;;;;;0.68;0.50;;;14.00;99.90;;;;;;4974737;28;20403;-72
2022/12/23 13:08:42;;;;;;;0.90;0.40;;;14.10;99.90;;;;;;4977648;28;20455;-71
2022/12/23 13:11:20;;;;;;;0.50;0.43;;;14.10;99.90;;;;;;5011779;28;20441;-73
2022/12/23 13:13:51;;;;;;;0.60;0.40;;;14.10;99.90;;;;;;4993245;28;20403;-73
2022/12/23 13:16:35;;;;;;;0.80;0.38;;;14.10;99.90;;;;;;5011483;28;20416;-73
2022/12/23 13:19:20;;;;;;;1.00;0.50;;;14.10;99.90;;;;;;5011724;28;20389;-71
2022/12/23 13:22:08;;;;;;;0.50;0.50;;;14.00;99.90;;;;;;5011629;28;20388;-72
2022/12/23 13:25:15;;;;;;;0.60;0.40;;;14.00;99.90;;;;;;5010745;28;20441;-72
2022/12/23 13:27:52;;;;;;;0.50;0.40;;;13.90;99.90;;;;;;4991956;28;20485;-73
2022/12/23 13:30:20;;;;;;;0.80;0.52;;;14.00;99.90;;;;;;4991829;28;20746;-73
2022/12/23 13:33:06;;;;;;;1.10;0.40;;;14.10;99.90;;;;;;4991535;28;20387;-73
2022/12/23 13:35:45;;;;;;;1.00;0.60;;;14.10;99.90;;;;;;4991614;28;20409;-74
2022/12/23 13:38:35;;;;;;;0.95;0.50;;;14.10;99.90;;;;;;4991772;28;20449;-73
2022/12/23 13:41:13;;;;;;;0.50;0.30;;;14.10;99.90;;;;;;4991722;28;20468;-73
2022/12/23 13:43:59;;;;;;;1.05;0.50;;;14.30;99.90;;;;;;4990582;28;20537;-73
2022/12/23 13:47:01;;;;;;;0.60;0.40;;;14.30;99.90;;;;;;4991572;28;20390;-73